sensor_id;sensor_type;location;lat;lon;timestamp;temperature;humidity
2010;DHT22;1008;47.404;8.502;2023-03-11T00:02:08;5.10;99.90
2010;DHT22;1008;47.404;8.502;2023-03-11T00:04:36;5.30;99.90
2010;DHT22;1008;47.404;8.502;2023-03-11T00:07:05;5.30;99.90
2010;DHT22;1008;47.404;8.502;2023-03-11T00:09:33;5.20;99.90
2010;DHT22;1008;47.404;8.502;2023-03-11T00:12:00;5.20;99.90
2010;DHT22;1008;47.404;8.502;2023-03-11T00:14:28;5.10;99.90
2010;DHT22;1008;47.404;8.502;2023-03-11T00:16:56;5.10;99.90
2010;DHT22;1008;47.404;8.502;2023-03-11T00:19:23;5.00;99.90
2010;DHT22;1008;47.404;8.502;2023-03-11T00:21:49;5.10;99.90
2010;DHT22;1008;47.404;8.502;2023-03-11T00:24:16;5.00;99.90
2010;DHT22;1008;47.404;8.502;2023-03-11T00:26:43;5.10;99.90
2010;DHT22;1008;47.404;8.502;2023-03-11T00:29:10;5.00;99.90
2010;DHT22;1008;47.404;8.502;2023-03-11T00:31:36;5.00;99.90
2010;DHT22;1008;47.404;8.502;2023-03-11T00:34:05;5.10;99.90
2010;DHT22;1008;47.404;8.502;2023-03-11T00:36:32;5.30;99.90
2010;DHT22;1008;47.404;8.502;2023-03-11T00:39:00;5.30;99.90
2010;DHT22;1008;47.404;8.502;2023-03-11T00:41:31;5.20;99.90
2010;DHT22;1008;47.404;8.502;2023-03-11T00:43:58;5.20;99.90
2010;DHT22;1008;47.404;8.502;2023-03-11T00:46:25;5.20;99.90
2010;DHT22;1008;47.404;8.502;2023-03-11T00:48:53;5.30;99.90
2010;DHT22;1008;47.404;8.502;2023-03-11T00:51:21;5.20;99.90
2010;DHT22;1008;47.404;8.502;2023-03-11T00:53:48;5.10;99.90
2010;DHT22;1008;47.404;8.502;2023-03-11T00:56:15;5.10;99.90
2010;DHT22;1008;47.404;8.502;2023-03-11T00:58:43;5.10;99.90
2010;DHT22;1008;47.404;8.502;2023-03-11T01:01:11;5.00;99.90
2010;DHT22;1008;47.404;8.502;2023-03-11T01:03:39;4.90;99.90
2010;DHT22;1008;47.404;8.502;2023-03-11T01:06:06;5.10;99.90
2010;DHT22;1008;47.404;8.502;2023-03-11T01:08:34;5.20;99.90
2010;DHT22;1008;47.404;8.502;2023-03-11T01:11:03;5.20;99.90
2010;DHT22;1008;47.404;8.502;2023-03-11T01:13:30;5.10;99.90
2010;DHT22;1008;47.404;8.502;2023-03-11T01:15:57;4.90;99.90
2010;DHT22;1008;47.404;8.502;2023-03-11T01:18:24;4.80;99.90
2010;DHT22;1008;47.404;8.502;2023-03-11T01:20:51;4.60;99.90
2010;DHT22;1008;47.404;8.502;2023-03-11T01:23:19;4.60;99.90
2010;DHT22;1008;47.404;8.502;2023-03-11T01:25:47;4.40;99.90
2010;DHT22;1008;47.404;8.502;2023-03-11T01:28:14;4.40;99.90
2010;DHT22;1008;47.404;8.502;2023-03-11T01:30:41;4.50;99.90
2010;DHT22;1008;47.404;8.502;2023-03-11T01:33:12;4.50;99.90
2010;DHT22;1008;47.404;8.502;2023-03-11T01:35:40;4.40;99.90
2010;DHT22;1008;47.404;8.502;2023-03-11T01:38:08;4.10;99.90
2010;DHT22;1008;47.404;8.502;2023-03-11T01:40:36;3.90;99.90
2010;DHT22;1008;47.404;8.502;2023-03-11T01:43:33;4.10;99.90
2010;DHT22;1008;47.404;8.502;2023-03-11T01:46:09;4.00;99.90
2010;DHT22;1008;47.404;8.502;2023-03-11T01:48:36;4.30;99.90
2010;DHT22;1008;47.404;8.502;2023-03-11T01:51:03;4.20;99.90
2010;DHT22;1008;47.404;8.502;2023-03-11T01:53:31;4.20;99.90
2010;DHT22;1008;47.404;8.502;2023-03-11T01:55:59;4.10;99.90
2010;DHT22;1008;47.404;8.502;2023-03-11T01:58:30;4.10;99.90
2010;DHT22;1008;47.404;8.502;2023-03-11T02:00:59;4.00;99.90
2010;DHT22;1008;47.404;8.502;2023-03-11T02:03:30;3.90;99.90
2010;DHT22;1008;47.404;8.502;2023-03-11T02:06:00;3.90;99.90
2010;DHT22;1008;47.404;8.502;2023-03-11T02:08:27;3.80;99.90
2010;DHT22;1008;47.404;8.502;2023-03-11T02:11:01;4.00;99.90
2010;DHT22;1008;47.404;8.502;2023-03-11T02:13:29;4.00;99.90
2010;DHT22;1008;47.404;8.502;2023-03-11T02:15:56;4.10;99.90
2010;DHT22;1008;47.404;8.502;2023-03-11T02:18:25;4.20;99.90
2010;DHT22;1008;47.404;8.502;2023-03-11T02:20:58;4.20;99.90
2010;DHT22;1008;47.404;8.502;2023-03-11T02:23:31;4.40;99.90
2010;DHT22;1008;47.404;8.502;2023-03-11T02:26:04;4.30;99.90
2010;DHT22;1008;47.404;8.502;2023-03-11T02:28:34;4.40;99.90
2010;DHT22;1008;47.404;8.502;2023-03-11T02:31:01;4.40;99.90
2010;DHT22;1008;47.404;8.502;2023-03-11T02:33:30;4.30;99.90
2010;DHT22;1008;47.404;8.502;2023-03-11T02:35:58;4.20;99.90
2010;DHT22;1008;47.404;8.502;2023-03-11T02:38:24;4.20;99.90
2010;DHT22;1008;47.404;8.502;2023-03-11T02:40:53;4.20;99.90
2010;DHT22;1008;47.404;8.502;2023-03-11T02:43:30;4.30;99.90
2010;DHT22;1008;47.404;8.502;2023-03-11T02:46:00;4.20;99.90
2010;DHT22;1008;47.404;8.502;2023-03-11T02:48:28;4.20;99.90
2010;DHT22;1008;47.404;8.502;2023-03-11T02:50:56;4.20;99.90
2010;DHT22;1008;47.404;8.502;2023-03-11T02:53:24;4.40;99.90
2010;DHT22;1008;47.404;8.502;2023-03-11T02:55:51;4.50;99.90
2010;DHT22;1008;47.404;8.502;2023-03-11T02:58:18;4.40;99.90
2010;DHT22;1008;47.404;8.502;2023-03-11T03:00:45;4.30;99.90
2010;DHT22;1008;47.404;8.502;2023-03-11T03:03:13;4.30;99.90
2010;DHT22;1008;47.404;8.502;2023-03-11T03:05:40;4.20;99.90
2010;DHT22;1008;47.404;8.502;2023-03-11T03:08:07;4.10;99.90
2010;DHT22;1008;47.404;8.502;2023-03-11T03:10:34;4.10;99.90
2010;DHT22;1008;47.404;8.502;2023-03-11T03:13:00;3.90;99.90
2010;DHT22;1008;47.404;8.502;2023-03-11T03:15:27;3.90;99.90
2010;DHT22;1008;47.404;8.502;2023-03-11T03:17:55;3.90;99.90
2010;DHT22;1008;47.404;8.502;2023-03-11T03:20:23;4.00;99.90
2010;DHT22;1008;47.404;8.502;2023-03-11T03:22:51;4.10;99.90
2010;DHT22;1008;47.404;8.502;2023-03-11T03:25:18;4.30;99.90
2010;DHT22;1008;47.404;8.502;2023-03-11T03:27:45;4.30;99.90
2010;DHT22;1008;47.404;8.502;2023-03-11T03:30:12;4.10;99.90
2010;DHT22;1008;47.404;8.502;2023-03-11T03:32:39;4.00;99.90
2010;DHT22;1008;47.404;8.502;2023-03-11T03:35:07;3.90;99.90
2010;DHT22;1008;47.404;8.502;2023-03-11T03:37:36;3.60;99.90
2010;DHT22;1008;47.404;8.502;2023-03-11T03:40:05;3.60;99.90
2010;DHT22;1008;47.404;8.502;2023-03-11T03:42:33;3.50;99.90
2010;DHT22;1008;47.404;8.502;2023-03-11T03:45:00;3.50;99.90
2010;DHT22;1008;47.404;8.502;2023-03-11T03:47:27;3.50;99.90
2010;DHT22;1008;47.404;8.502;2023-03-11T03:49:54;3.50;99.90
2010;DHT22;1008;47.404;8.502;2023-03-11T03:52:21;3.60;99.90
2010;DHT22;1008;47.404;8.502;2023-03-11T03:54:49;3.40;99.90
2010;DHT22;1008;47.404;8.502;2023-03-11T03:57:16;3.40;99.90
2010;DHT22;1008;47.404;8.502;2023-03-11T03:59:43;3.50;99.90
2010;DHT22;1008;47.404;8.502;2023-03-11T04:02:10;3.70;99.90
2010;DHT22;1008;47.404;8.502;2023-03-11T04:04:37;3.70;99.90
2010;DHT22;1008;47.404;8.502;2023-03-11T04:07:04;3.40;99.90
2010;DHT22;1008;47.404;8.502;2023-03-11T04:09:31;3.40;99.90
2010;DHT22;1008;47.404;8.502;2023-03-11T04:11:59;3.40;99.90
2010;DHT22;1008;47.404;8.502;2023-03-11T04:14:26;3.30;99.90
2010;DHT22;1008;47.404;8.502;2023-03-11T04:16:53;3.30;99.90
2010;DHT22;1008;47.404;8.502;2023-03-11T04:19:19;3.30;99.90
2010;DHT22;1008;47.404;8.502;2023-03-11T04:21:46;3.30;99.90
2010;DHT22;1008;47.404;8.502;2023-03-11T04:24:13;3.50;99.90
2010;DHT22;1008;47.404;8.502;2023-03-11T04:26:40;3.60;99.90
2010;DHT22;1008;47.404;8.502;2023-03-11T04:29:08;3.70;99.90
2010;DHT22;1008;47.404;8.502;2023-03-11T04:31:35;3.60;99.90
2010;DHT22;1008;47.404;8.502;2023-03-11T04:34:01;3.60;99.90
2010;DHT22;1008;47.404;8.502;2023-03-11T04:36:28;3.50;99.90
2010;DHT22;1008;47.404;8.502;2023-03-11T04:38:55;3.60;99.90
2010;DHT22;1008;47.404;8.502;2023-03-11T04:41:22;3.50;99.90
2010;DHT22;1008;47.404;8.502;2023-03-11T04:43:49;3.50;99.90
2010;DHT22;1008;47.404;8.502;2023-03-11T04:46:17;3.20;99.90
2010;DHT22;1008;47.404;8.502;2023-03-11T04:48:44;3.10;99.90
2010;DHT22;1008;47.404;8.502;2023-03-11T04:51:10;3.10;99.90
2010;DHT22;1008;47.404;8.502;2023-03-11T04:53:37;3.00;99.90
2010;DHT22;1008;47.404;8.502;2023-03-11T04:56:04;3.20;99.90
2010;DHT22;1008;47.404;8.502;2023-03-11T04:58:31;3.40;99.90
2010;DHT22;1008;47.404;8.502;2023-03-11T05:00:58;3.40;99.90
2010;DHT22;1008;47.404;8.502;2023-03-11T05:03:26;3.50;99.90
2010;DHT22;1008;47.404;8.502;2023-03-11T05:05:53;3.60;99.90
2010;DHT22;1008;47.404;8.502;2023-03-11T05:08:22;3.60;99.90
2010;DHT22;1008;47.404;8.502;2023-03-11T05:10:50;3.70;99.90
2010;DHT22;1008;47.404;8.502;2023-03-11T05:13:17;3.80;99.90
2010;DHT22;1008;47.404;8.502;2023-03-11T05:15:45;4.20;99.90
2010;DHT22;1008;47.404;8.502;2023-03-11T05:18:12;4.50;99.90
2010;DHT22;1008;47.404;8.502;2023-03-11T05:20:40;4.20;99.90
2010;DHT22;1008;47.404;8.502;2023-03-11T05:23:07;4.20;99.90
2010;DHT22;1008;47.404;8.502;2023-03-11T05:25:34;4.40;99.90
2010;DHT22;1008;47.404;8.502;2023-03-11T05:28:01;4.40;99.90
2010;DHT22;1008;47.404;8.502;2023-03-11T05:30:27;4.40;99.90
2010;DHT22;1008;47.404;8.502;2023-03-11T05:32:54;4.30;99.90
2010;DHT22;1008;47.404;8.502;2023-03-11T05:35:21;4.30;99.90
2010;DHT22;1008;47.404;8.502;2023-03-11T05:37:50;4.20;99.90
2010;DHT22;1008;47.404;8.502;2023-03-11T05:40:18;4.00;99.90
2010;DHT22;1008;47.404;8.502;2023-03-11T05:42:45;3.90;99.90
2010;DHT22;1008;47.404;8.502;2023-03-11T05:45:13;4.00;99.90
2010;DHT22;1008;47.404;8.502;2023-03-11T05:47:40;4.10;99.90
2010;DHT22;1008;47.404;8.502;2023-03-11T05:50:08;4.00;99.90
2010;DHT22;1008;47.404;8.502;2023-03-11T05:52:35;3.90;99.90
2010;DHT22;1008;47.404;8.502;2023-03-11T05:55:04;3.80;99.90
2010;DHT22;1008;47.404;8.502;2023-03-11T05:57:31;3.70;99.90
2010;DHT22;1008;47.404;8.502;2023-03-11T05:59:58;3.70;99.90
2010;DHT22;1008;47.404;8.502;2023-03-11T06:02:25;3.60;99.90
2010;DHT22;1008;47.404;8.502;2023-03-11T06:04:51;3.40;99.90
2010;DHT22;1008;47.404;8.502;2023-03-11T06:07:18;3.40;99.90
2010;DHT22;1008;47.404;8.502;2023-03-11T06:09:45;3.40;99.90
2010;DHT22;1008;47.404;8.502;2023-03-11T06:12:13;3.50;99.90
2010;DHT22;1008;47.404;8.502;2023-03-11T06:14:40;3.20;99.90
2010;DHT22;1008;47.404;8.502;2023-03-11T06:17:06;3.10;99.90
2010;DHT22;1008;47.404;8.502;2023-03-11T06:19:33;3.10;99.90
2010;DHT22;1008;47.404;8.502;2023-03-11T06:22:01;3.30;99.90
2010;DHT22;1008;47.404;8.502;2023-03-11T06:24:28;3.40;99.90
2010;DHT22;1008;47.404;8.502;2023-03-11T06:26:54;3.50;99.90
2010;DHT22;1008;47.404;8.502;2023-03-11T06:29:22;3.70;99.90
2010;DHT22;1008;47.404;8.502;2023-03-11T06:31:51;3.90;99.90
2010;DHT22;1008;47.404;8.502;2023-03-11T06:34:18;3.70;99.90
2010;DHT22;1008;47.404;8.502;2023-03-11T06:36:44;3.90;99.90
2010;DHT22;1008;47.404;8.502;2023-03-11T06:39:13;4.00;99.90
2010;DHT22;1008;47.404;8.502;2023-03-11T06:41:40;3.80;99.90
2010;DHT22;1008;47.404;8.502;2023-03-11T06:44:08;3.90;99.90
2010;DHT22;1008;47.404;8.502;2023-03-11T06:46:36;4.10;99.90
2010;DHT22;1008;47.404;8.502;2023-03-11T06:49:03;4.20;99.90
2010;DHT22;1008;47.404;8.502;2023-03-11T06:51:30;4.10;99.90
2010;DHT22;1008;47.404;8.502;2023-03-11T06:53:57;4.20;99.90
2010;DHT22;1008;47.404;8.502;2023-03-11T06:56:24;4.00;99.90
2010;DHT22;1008;47.404;8.502;2023-03-11T06:58:52;4.00;99.90
2010;DHT22;1008;47.404;8.502;2023-03-11T07:01:20;4.10;99.90
2010;DHT22;1008;47.404;8.502;2023-03-11T07:03:49;4.10;99.90
2010;DHT22;1008;47.404;8.502;2023-03-11T07:06:17;4.30;99.90
2010;DHT22;1008;47.404;8.502;2023-03-11T07:08:45;4.20;99.90
2010;DHT22;1008;47.404;8.502;2023-03-11T07:11:14;4.10;99.90
2010;DHT22;1008;47.404;8.502;2023-03-11T07:13:41;3.90;99.90
2010;DHT22;1008;47.404;8.502;2023-03-11T07:16:11;4.00;99.90
2010;DHT22;1008;47.404;8.502;2023-03-11T07:18:39;4.00;99.90
2010;DHT22;1008;47.404;8.502;2023-03-11T07:21:08;3.90;99.90
2010;DHT22;1008;47.404;8.502;2023-03-11T07:23:37;3.80;99.90
2010;DHT22;1008;47.404;8.502;2023-03-11T07:26:03;3.70;99.90
2010;DHT22;1008;47.404;8.502;2023-03-11T07:28:30;3.80;99.90
2010;DHT22;1008;47.404;8.502;2023-03-11T07:30:57;3.60;99.90
2010;DHT22;1008;47.404;8.502;2023-03-11T07:33:24;3.70;99.90
2010;DHT22;1008;47.404;8.502;2023-03-11T07:35:51;3.60;99.90
2010;DHT22;1008;47.404;8.502;2023-03-11T07:38:19;3.60;99.90
2010;DHT22;1008;47.404;8.502;2023-03-11T07:40:46;3.60;99.90
2010;DHT22;1008;47.404;8.502;2023-03-11T07:43:12;3.60;99.90
2010;DHT22;1008;47.404;8.502;2023-03-11T07:45:39;3.60;99.90
2010;DHT22;1008;47.404;8.502;2023-03-11T07:48:06;3.50;99.90
2010;DHT22;1008;47.404;8.502;2023-03-11T07:50:33;3.60;99.90
2010;DHT22;1008;47.404;8.502;2023-03-11T07:53:00;3.60;99.90
2010;DHT22;1008;47.404;8.502;2023-03-11T07:55:28;3.40;99.90
2010;DHT22;1008;47.404;8.502;2023-03-11T07:57:54;3.50;99.90
2010;DHT22;1008;47.404;8.502;2023-03-11T08:00:21;3.60;99.90
2010;DHT22;1008;47.404;8.502;2023-03-11T08:02:48;3.70;99.90
2010;DHT22;1008;47.404;8.502;2023-03-11T08:05:15;3.80;99.90
2010;DHT22;1008;47.404;8.502;2023-03-11T08:07:43;3.80;99.90
2010;DHT22;1008;47.404;8.502;2023-03-11T08:10:10;3.60;99.90
2010;DHT22;1008;47.404;8.502;2023-03-11T08:12:38;3.80;99.90
2010;DHT22;1008;47.404;8.502;2023-03-11T08:15:06;4.00;99.90
2010;DHT22;1008;47.404;8.502;2023-03-11T08:17:33;4.00;99.90
2010;DHT22;1008;47.404;8.502;2023-03-11T08:20:00;4.00;99.90
2010;DHT22;1008;47.404;8.502;2023-03-11T08:22:27;3.50;99.90
2010;DHT22;1008;47.404;8.502;2023-03-11T08:24:53;3.80;99.90
2010;DHT22;1008;47.404;8.502;2023-03-11T08:27:21;3.90;99.90
2010;DHT22;1008;47.404;8.502;2023-03-11T08:29:49;3.80;99.90
2010;DHT22;1008;47.404;8.502;2023-03-11T08:32:16;3.60;99.90
2010;DHT22;1008;47.404;8.502;2023-03-11T08:34:42;3.70;99.90
2010;DHT22;1008;47.404;8.502;2023-03-11T08:37:09;3.60;99.90
2010;DHT22;1008;47.404;8.502;2023-03-11T08:39:36;4.10;99.90
2010;DHT22;1008;47.404;8.502;2023-03-11T08:42:03;4.00;99.90
2010;DHT22;1008;47.404;8.502;2023-03-11T08:44:30;3.90;99.90
2010;DHT22;1008;47.404;8.502;2023-03-11T08:46:59;3.60;99.90
2010;DHT22;1008;47.404;8.502;2023-03-11T08:49:26;3.50;99.90
2010;DHT22;1008;47.404;8.502;2023-03-11T08:51:52;3.30;99.90
2010;DHT22;1008;47.404;8.502;2023-03-11T08:54:19;3.30;99.90
2010;DHT22;1008;47.404;8.502;2023-03-11T08:56:46;3.40;99.90
2010;DHT22;1008;47.404;8.502;2023-03-11T08:59:13;3.70;99.90
2010;DHT22;1008;47.404;8.502;2023-03-11T09:01:40;3.90;99.90
2010;DHT22;1008;47.404;8.502;2023-03-11T09:04:08;4.00;99.90
2010;DHT22;1008;47.404;8.502;2023-03-11T09:06:36;4.10;99.90
2010;DHT22;1008;47.404;8.502;2023-03-11T09:09:03;3.80;99.90
2010;DHT22;1008;47.404;8.502;2023-03-11T09:11:30;4.00;99.90
2010;DHT22;1008;47.404;8.502;2023-03-11T09:13:56;3.80;99.90
2010;DHT22;1008;47.404;8.502;2023-03-11T09:16:24;3.80;99.90
2010;DHT22;1008;47.404;8.502;2023-03-11T09:18:50;4.10;99.90
2010;DHT22;1008;47.404;8.502;2023-03-11T09:21:18;4.30;99.90
2010;DHT22;1008;47.404;8.502;2023-03-11T09:23:46;4.30;99.90
2010;DHT22;1008;47.404;8.502;2023-03-11T09:26:13;4.30;99.90
2010;DHT22;1008;47.404;8.502;2023-03-11T09:28:40;4.20;99.90
2010;DHT22;1008;47.404;8.502;2023-03-11T09:31:07;4.20;99.90
2010;DHT22;1008;47.404;8.502;2023-03-11T09:33:36;4.20;99.90
2010;DHT22;1008;47.404;8.502;2023-03-11T09:36:04;4.10;99.90
2010;DHT22;1008;47.404;8.502;2023-03-11T09:38:32;4.10;99.90
2010;DHT22;1008;47.404;8.502;2023-03-11T09:41:01;4.00;99.90
2010;DHT22;1008;47.404;8.502;2023-03-11T09:43:45;3.90;99.90
2010;DHT22;1008;47.404;8.502;2023-03-11T09:46:29;4.20;99.90
2010;DHT22;1008;47.404;8.502;2023-03-11T09:49:07;4.50;99.90
2010;DHT22;1008;47.404;8.502;2023-03-11T09:51:38;4.70;99.90
2010;DHT22;1008;47.404;8.502;2023-03-11T09:54:11;4.90;99.90
2010;DHT22;1008;47.404;8.502;2023-03-11T09:56:38;4.90;99.90
2010;DHT22;1008;47.404;8.502;2023-03-11T09:59:08;5.00;99.90
2010;DHT22;1008;47.404;8.502;2023-03-11T10:01:41;5.00;99.90
2010;DHT22;1008;47.404;8.502;2023-03-11T10:04:12;4.40;99.90
2010;DHT22;1008;47.404;8.502;2023-03-11T10:06:41;4.40;99.90
2010;DHT22;1008;47.404;8.502;2023-03-11T10:09:25;4.40;99.90
2010;DHT22;1008;47.404;8.502;2023-03-11T10:12:05;4.10;99.90
2010;DHT22;1008;47.404;8.502;2023-03-11T10:14:47;4.00;99.90
2010;DHT22;1008;47.404;8.502;2023-03-11T10:17:27;4.20;99.90
2010;DHT22;1008;47.404;8.502;2023-03-11T10:20:02;4.20;99.90
2010;DHT22;1008;47.404;8.502;2023-03-11T10:22:37;4.30;99.90
2010;DHT22;1008;47.404;8.502;2023-03-11T10:25:10;4.50;99.90
2010;DHT22;1008;47.404;8.502;2023-03-11T10:27:42;4.40;99.90
2010;DHT22;1008;47.404;8.502;2023-03-11T10:30:22;4.40;99.90
2010;DHT22;1008;47.404;8.502;2023-03-11T10:32:52;4.40;99.90
2010;DHT22;1008;47.404;8.502;2023-03-11T10:35:21;4.40;99.90
2010;DHT22;1008;47.404;8.502;2023-03-11T10:37:52;4.50;99.90
2010;DHT22;1008;47.404;8.502;2023-03-11T10:40:25;4.70;99.90
2010;DHT22;1008;47.404;8.502;2023-03-11T10:42:55;5.00;99.90
2010;DHT22;1008;47.404;8.502;2023-03-11T10:45:23;5.10;99.90
2010;DHT22;1008;47.404;8.502;2023-03-11T10:47:50;4.90;99.90
2010;DHT22;1008;47.404;8.502;2023-03-11T10:50:18;4.80;99.90
2010;DHT22;1008;47.404;8.502;2023-03-11T10:53:03;5.00;99.90
2010;DHT22;1008;47.404;8.502;2023-03-11T10:55:32;5.10;99.90
2010;DHT22;1008;47.404;8.502;2023-03-11T10:58:09;5.30;99.90
2010;DHT22;1008;47.404;8.502;2023-03-11T11:00:37;5.40;99.90
2010;DHT22;1008;47.404;8.502;2023-03-11T11:03:10;5.60;99.90
2010;DHT22;1008;47.404;8.502;2023-03-11T11:05:38;5.40;99.90
2010;DHT22;1008;47.404;8.502;2023-03-11T11:08:06;5.40;99.90
2010;DHT22;1008;47.404;8.502;2023-03-11T11:10:36;5.50;99.90
2010;DHT22;1008;47.404;8.502;2023-03-11T11:13:16;5.50;99.90
2010;DHT22;1008;47.404;8.502;2023-03-11T11:15:55;5.50;99.90
2010;DHT22;1008;47.404;8.502;2023-03-11T11:18:24;5.70;99.90
2010;DHT22;1008;47.404;8.502;2023-03-11T11:20:58;5.60;99.90
2010;DHT22;1008;47.404;8.502;2023-03-11T11:23:33;5.40;99.90
2010;DHT22;1008;47.404;8.502;2023-03-11T11:26:03;5.40;99.90
2010;DHT22;1008;47.404;8.502;2023-03-11T11:28:31;5.50;99.90
2010;DHT22;1008;47.404;8.502;2023-03-11T11:31:00;5.50;99.90
2010;DHT22;1008;47.404;8.502;2023-03-11T11:33:29;5.60;99.90
2010;DHT22;1008;47.404;8.502;2023-03-11T11:35:58;5.60;99.90
2010;DHT22;1008;47.404;8.502;2023-03-11T11:38:26;5.90;99.90
2010;DHT22;1008;47.404;8.502;2023-03-11T11:40:55;6.00;99.90
2010;DHT22;1008;47.404;8.502;2023-03-11T11:43:33;6.00;99.90
2010;DHT22;1008;47.404;8.502;2023-03-11T11:46:06;6.20;99.90
2010;DHT22;1008;47.404;8.502;2023-03-11T11:48:43;6.10;99.90
2010;DHT22;1008;47.404;8.502;2023-03-11T11:51:18;6.00;99.90
2010;DHT22;1008;47.404;8.502;2023-03-11T11:53:50;5.90;99.90
2010;DHT22;1008;47.404;8.502;2023-03-11T11:56:18;5.70;99.90
2010;DHT22;1008;47.404;8.502;2023-03-11T11:58:46;5.90;99.90
2010;DHT22;1008;47.404;8.502;2023-03-11T12:01:14;6.00;99.90
2010;DHT22;1008;47.404;8.502;2023-03-11T12:03:59;6.20;99.90
2010;DHT22;1008;47.404;8.502;2023-03-11T12:06:32;6.10;99.90
2010;DHT22;1008;47.404;8.502;2023-03-11T12:09:05;6.40;99.90
2010;DHT22;1008;47.404;8.502;2023-03-11T12:11:45;6.60;99.90
2010;DHT22;1008;47.404;8.502;2023-03-11T12:14:20;6.50;99.90
2010;DHT22;1008;47.404;8.502;2023-03-11T12:16:54;6.20;99.90
2010;DHT22;1008;47.404;8.502;2023-03-11T12:19:33;6.20;99.90
2010;DHT22;1008;47.404;8.502;2023-03-11T12:25:22;6.20;99.90
2010;DHT22;1008;47.404;8.502;2023-03-11T12:27:53;6.10;99.90
2010;DHT22;1008;47.404;8.502;2023-03-11T12:30:27;6.30;99.90
2010;DHT22;1008;47.404;8.502;2023-03-11T12:32:57;5.80;99.90
2010;DHT22;1008;47.404;8.502;2023-03-11T12:35:27;5.90;99.90
2010;DHT22;1008;47.404;8.502;2023-03-11T12:38:01;5.90;99.90
2010;DHT22;1008;47.404;8.502;2023-03-11T12:40:47;6.00;99.90
2010;DHT22;1008;47.404;8.502;2023-03-11T12:50:36;6.00;99.90
2010;DHT22;1008;47.404;8.502;2023-03-11T12:53:04;5.60;99.90
2010;DHT22;1008;47.404;8.502;2023-03-11T12:55:32;5.90;99.90
2010;DHT22;1008;47.404;8.502;2023-03-11T12:58:36;5.70;99.90
2010;DHT22;1008;47.404;8.502;2023-03-11T13:01:23;5.90;99.90
2010;DHT22;1008;47.404;8.502;2023-03-11T13:04:08;6.00;99.90
2010;DHT22;1008;47.404;8.502;2023-03-11T13:06:54;5.60;99.90
2010;DHT22;1008;47.404;8.502;2023-03-11T13:09:26;5.90;99.90
2010;DHT22;1008;47.404;8.502;2023-03-11T13:11:52;6.00;99.90
2010;DHT22;1008;47.404;8.502;2023-03-11T13:14:27;5.90;99.90
2010;DHT22;1008;47.404;8.502;2023-03-11T13:16:55;5.90;99.90
2010;DHT22;1008;47.404;8.502;2023-03-11T13:19:45;6.00;99.90
2010;DHT22;1008;47.404;8.502;2023-03-11T13:25:30;6.00;99.90
2010;DHT22;1008;47.404;8.502;2023-03-11T13:28:02;5.50;99.90
2010;DHT22;1008;47.404;8.502;2023-03-11T13:30:37;5.50;99.90
2010;DHT22;1008;47.404;8.502;2023-03-11T13:33:35;5.60;99.90
2010;DHT22;1008;47.404;8.502;2023-03-11T13:36:15;5.40;99.90
2010;DHT22;1008;47.404;8.502;2023-03-11T13:38:57;5.50;99.90
2010;DHT22;1008;47.404;8.502;2023-03-11T13:41:30;5.60;99.90
2010;DHT22;1008;47.404;8.502;2023-03-11T13:44:04;5.70;99.90
2010;DHT22;1008;47.404;8.502;2023-03-11T13:46:37;5.50;99.90
2010;DHT22;1008;47.404;8.502;2023-03-11T13:49:13;5.50;99.90
2010;DHT22;1008;47.404;8.502;2023-03-11T13:51:46;5.30;99.90
2010;DHT22;1008;47.404;8.502;2023-03-11T13:54:41;5.00;99.90
2010;DHT22;1008;47.404;8.502;2023-03-11T13:57:24;5.10;99.90
2010;DHT22;1008;47.404;8.502;2023-03-11T13:59:52;5.10;99.90
2010;DHT22;1008;47.404;8.502;2023-03-11T14:02:21;5.20;99.90
2010;DHT22;1008;47.404;8.502;2023-03-11T14:04:50;5.00;99.90
2010;DHT22;1008;47.404;8.502;2023-03-11T14:07:25;5.00;99.90
2010;DHT22;1008;47.404;8.502;2023-03-11T14:10:13;5.10;99.90
2010;DHT22;1008;47.404;8.502;2023-03-11T14:12:42;5.10;99.90
2010;DHT22;1008;47.404;8.502;2023-03-11T14:15:13;5.20;99.90
2010;DHT22;1008;47.404;8.502;2023-03-11T14:17:42;5.00;99.90
2010;DHT22;1008;47.404;8.502;2023-03-11T14:20:12;5.00;99.90
2010;DHT22;1008;47.404;8.502;2023-03-11T14:22:43;5.00;99.90
2010;DHT22;1008;47.404;8.502;2023-03-11T14:25:16;5.20;99.90
2010;DHT22;1008;47.404;8.502;2023-03-11T14:27:50;5.00;99.90
2010;DHT22;1008;47.404;8.502;2023-03-11T14:30:24;4.90;99.90
2010;DHT22;1008;47.404;8.502;2023-03-11T14:32:59;4.80;99.90
2010;DHT22;1008;47.404;8.502;2023-03-11T14:35:26;5.20;99.90
2010;DHT22;1008;47.404;8.502;2023-03-11T14:37:53;5.00;99.90
2010;DHT22;1008;47.404;8.502;2023-03-11T14:40:26;4.80;99.90
2010;DHT22;1008;47.404;8.502;2023-03-11T14:42:56;4.80;99.90
2010;DHT22;1008;47.404;8.502;2023-03-11T14:45:25;5.00;99.90
2010;DHT22;1008;47.404;8.502;2023-03-11T14:47:57;4.80;99.90
2010;DHT22;1008;47.404;8.502;2023-03-11T14:50:27;4.90;99.90
2010;DHT22;1008;47.404;8.502;2023-03-11T14:52:57;5.10;99.90
2010;DHT22;1008;47.404;8.502;2023-03-11T14:55:28;5.10;99.90
2010;DHT22;1008;47.404;8.502;2023-03-11T14:58:02;5.10;99.90
2010;DHT22;1008;47.404;8.502;2023-03-11T15:00:34;5.00;99.90
2010;DHT22;1008;47.404;8.502;2023-03-11T15:03:07;4.90;99.90
2010;DHT22;1008;47.404;8.502;2023-03-11T15:05:44;4.90;99.90
2010;DHT22;1008;47.404;8.502;2023-03-11T15:08:16;5.00;99.90
2010;DHT22;1008;47.404;8.502;2023-03-11T15:11:01;4.80;99.90
2010;DHT22;1008;47.404;8.502;2023-03-11T15:13:30;4.80;99.90
2010;DHT22;1008;47.404;8.502;2023-03-11T15:15:58;4.80;99.90
2010;DHT22;1008;47.404;8.502;2023-03-11T15:18:29;4.70;99.90
2010;DHT22;1008;47.404;8.502;2023-03-11T15:21:12;4.90;99.90
2010;DHT22;1008;47.404;8.502;2023-03-11T15:23:44;4.50;99.90
2010;DHT22;1008;47.404;8.502;2023-03-11T15:26:18;4.60;99.90
2010;DHT22;1008;47.404;8.502;2023-03-11T15:28:52;4.60;99.90
2010;DHT22;1008;47.404;8.502;2023-03-11T15:31:37;4.70;99.90
2010;DHT22;1008;47.404;8.502;2023-03-11T15:34:10;4.70;99.90
2010;DHT22;1008;47.404;8.502;2023-03-11T15:36:39;4.50;99.90
2010;DHT22;1008;47.404;8.502;2023-03-11T15:39:12;4.60;99.90
2010;DHT22;1008;47.404;8.502;2023-03-11T15:41:40;4.40;99.90
2010;DHT22;1008;47.404;8.502;2023-03-11T15:44:21;4.40;99.90
2010;DHT22;1008;47.404;8.502;2023-03-11T15:46:49;4.40;99.90
2010;DHT22;1008;47.404;8.502;2023-03-11T15:49:16;4.50;99.90
2010;DHT22;1008;47.404;8.502;2023-03-11T15:51:43;4.40;99.90
2010;DHT22;1008;47.404;8.502;2023-03-11T15:54:09;4.50;99.90
2010;DHT22;1008;47.404;8.502;2023-03-11T15:56:37;4.40;99.90
2010;DHT22;1008;47.404;8.502;2023-03-11T15:59:05;4.40;99.90
2010;DHT22;1008;47.404;8.502;2023-03-11T16:01:33;4.40;99.90
2010;DHT22;1008;47.404;8.502;2023-03-11T16:04:00;4.50;99.90
2010;DHT22;1008;47.404;8.502;2023-03-11T16:06:26;4.40;99.90
2010;DHT22;1008;47.404;8.502;2023-03-11T16:08:53;4.40;99.90
2010;DHT22;1008;47.404;8.502;2023-03-11T16:11:20;4.30;99.90
2010;DHT22;1008;47.404;8.502;2023-03-11T16:13:47;4.20;99.90
2010;DHT22;1008;47.404;8.502;2023-03-11T16:16:15;4.30;99.90
2010;DHT22;1008;47.404;8.502;2023-03-11T16:18:43;4.40;99.90
2010;DHT22;1008;47.404;8.502;2023-03-11T16:21:14;4.50;99.90
2010;DHT22;1008;47.404;8.502;2023-03-11T16:23:42;4.60;99.90
2010;DHT22;1008;47.404;8.502;2023-03-11T16:26:10;4.60;99.90
2010;DHT22;1008;47.404;8.502;2023-03-11T16:28:37;4.50;99.90
2010;DHT22;1008;47.404;8.502;2023-03-11T16:31:05;4.50;99.90
2010;DHT22;1008;47.404;8.502;2023-03-11T16:33:33;4.40;99.90
2010;DHT22;1008;47.404;8.502;2023-03-11T16:36:01;4.40;99.90
2010;DHT22;1008;47.404;8.502;2023-03-11T16:38:28;4.20;99.90
2010;DHT22;1008;47.404;8.502;2023-03-11T16:40:57;4.40;99.90
2010;DHT22;1008;47.404;8.502;2023-03-11T16:43:24;4.50;99.90
2010;DHT22;1008;47.404;8.502;2023-03-11T16:45:51;4.40;99.90
2010;DHT22;1008;47.404;8.502;2023-03-11T16:48:19;4.30;99.90